createdAt,value
2023-05-01T00:03:13.769Z,99356.73
2023-05-01T00:08:15.285Z,99350.23
2023-05-01T00:13:21.135Z,99346.92
2023-05-01T00:18:22.274Z,99346.52
2023-05-01T00:23:23.562Z,99344.20
2023-05-01T00:28:24.904Z,99342.84
2023-05-01T00:33:25.866Z,99339.04
2023-05-01T00:38:26.934Z,99336.46
2023-05-01T00:43:28.038Z,99333.83
2023-05-01T00:48:30.072Z,99335.91
2023-05-01T00:53:33.181Z,99330.23
2023-05-01T00:58:34.354Z,99322.59
2023-05-01T01:03:35.360Z,99324.77
2023-05-01T01:08:45.411Z,99322.11
2023-05-01T01:13:59.644Z,99319.48
2023-05-01T01:19:20.055Z,99311.75
2023-05-01T01:24:37.621Z,99305.42
2023-05-01T01:29:50.671Z,99307.13
2023-05-01T01:34:55.753Z,99306.50
2023-05-01T01:40:06.336Z,99305.15
2023-05-01T01:45:37.026Z,99304.88
2023-05-01T01:50:40.587Z,99297.27
2023-05-01T01:55:44.554Z,99296.83
2023-05-01T02:00:45.723Z,99292.21
2023-05-01T02:05:48.988Z,99289.17
2023-05-01T02:10:51.338Z,99285.73
2023-05-01T02:15:54.293Z,99287.27
2023-05-01T02:20:58.182Z,99284.69
2023-05-01T02:26:03.449Z,99282.49
2023-05-01T02:31:04.624Z,99274.79
2023-05-01T02:36:06.181Z,99276.73
2023-05-01T02:41:09.876Z,99274.27
2023-05-01T02:46:13.542Z,99273.56
2023-05-01T02:51:16.107Z,99266.02
2023-05-01T02:56:17.494Z,99263.63
2023-05-01T03:01:20.066Z,99265.89
2023-05-01T03:06:21.318Z,99266.38
2023-05-01T03:11:23.525Z,99267.23
2023-05-01T03:16:24.526Z,99261.35
2023-05-01T03:21:26.067Z,99256.71
2023-05-01T03:26:27.845Z,99259.17
2023-05-01T03:31:29.073Z,99249.55
2023-05-01T03:36:33.117Z,99239.34
2023-05-01T03:41:34.191Z,99238.73
2023-05-01T03:46:48.264Z,99242.59
2023-05-01T03:51:56.454Z,99242.11
2023-05-01T03:56:57.967Z,99244.40
2023-05-01T04:01:59.134Z,99241.13
2023-05-01T04:07:02.246Z,99243.48
2023-05-01T04:12:03.518Z,99238.45
2023-05-01T04:17:04.676Z,99233.79
2023-05-01T04:22:07.845Z,99235.36
2023-05-01T04:27:09.325Z,99235.66
2023-05-01T04:32:10.417Z,99239.30
2023-05-01T04:37:13.735Z,99239.52
2023-05-01T04:42:16.957Z,99243.18
2023-05-01T04:47:18.364Z,99240.91
2023-05-01T04:52:19.466Z,99242.93
2023-05-01T04:57:30.442Z,99244.05
2023-05-01T05:02:31.950Z,99243.83
2023-05-01T05:07:33.394Z,99233.92
2023-05-01T05:13:00.354Z,99230.45
2023-05-01T05:18:01.706Z,99228.85
2023-05-01T05:23:04.121Z,99225.67
2023-05-01T05:28:05.198Z,99225.31
2023-05-01T05:33:08.077Z,99224.45
2023-05-01T05:38:09.796Z,99226.23
2023-05-01T05:43:12.309Z,99226.88
2023-05-01T05:48:13.923Z,99223.23
2023-05-01T05:53:15.682Z,99228.67
2023-05-01T05:58:19.531Z,99224.34
2023-05-01T06:03:21.853Z,99224.48
2023-05-01T06:08:24.286Z,99218.15
2023-05-01T06:13:26.146Z,99213.35
2023-05-01T06:18:27.384Z,99214.67
2023-05-01T06:23:28.672Z,99220.00
2023-05-01T06:28:47.996Z,99213.78
2023-05-01T06:33:49.312Z,99212.66
2023-05-01T06:38:56.689Z,99209.95
2023-05-01T06:43:57.889Z,99208.07
2023-05-01T06:48:58.880Z,99207.60
2023-05-01T06:54:00.002Z,99209.81
2023-05-01T06:59:01.050Z,99205.49
2023-05-01T07:04:03.420Z,99201.67
2023-05-01T07:09:04.679Z,99199.89
2023-05-01T07:14:05.829Z,99198.25
2023-05-01T07:19:06.992Z,99196.63
2023-05-01T07:24:07.991Z,99192.44
2023-05-01T07:29:08.978Z,99185.61
2023-05-01T07:34:10.785Z,99188.89
2023-05-01T07:39:13.151Z,99183.23
2023-05-01T07:44:14.384Z,99177.06
2023-05-01T07:49:15.440Z,99179.97
2023-05-01T07:54:21.302Z,99178.76
2023-05-01T07:59:22.380Z,99186.64
2023-05-01T08:04:23.602Z,99180.60
2023-05-01T08:09:24.679Z,99181.25
2023-05-01T08:14:25.696Z,99183.65
2023-05-01T08:19:27.305Z,99182.44
2023-05-01T08:24:29.395Z,99182.38
2023-05-01T08:29:30.471Z,99179.60
2023-05-01T08:34:31.431Z,99175.08
2023-05-01T08:39:32.673Z,99171.90
2023-05-01T08:44:37.872Z,99160.66
2023-05-01T08:49:41.237Z,99159.35
2023-05-01T08:54:43.930Z,99163.00
2023-05-01T08:59:45.512Z,99157.75
2023-05-01T09:04:48.216Z,99154.95
2023-05-01T09:09:49.238Z,99149.21
2023-05-01T09:14:52.514Z,99143.20
2023-05-01T09:19:53.839Z,99138.96
2023-05-01T09:24:55.623Z,99133.52
2023-05-01T09:29:56.702Z,99128.77
2023-05-01T09:35:12.956Z,99122.45
2023-05-01T09:40:14.514Z,99125.15
2023-05-01T09:45:16.957Z,99118.14
2023-05-01T09:50:29.488Z,99111.98
2023-05-01T09:55:30.896Z,99112.40
2023-05-01T10:00:46.475Z,99106.17
2023-05-01T10:05:47.817Z,99102.14
2023-05-01T10:11:04.646Z,99104.30
2023-05-01T10:16:06.827Z,99097.27
2023-05-01T10:21:09.849Z,99093.30
2023-05-01T10:26:12.922Z,99084.95
2023-05-01T10:31:15.727Z,99079.87
2023-05-01T10:36:21.909Z,99077.44
2023-05-01T10:41:57.587Z,99071.37
2023-05-01T10:46:58.945Z,99065.21
2023-05-01T10:52:03.010Z,99060.99
2023-05-01T10:57:05.800Z,99057.44
2023-05-01T11:02:21.720Z,99044.64
2023-05-01T11:07:23.918Z,99035.25
2023-05-01T11:12:51.044Z,99026.20
2023-05-01T11:17:52.207Z,99017.17
2023-05-01T11:22:56.507Z,99011.67
2023-05-01T11:28:00.313Z,99005.95
2023-05-01T11:33:03.505Z,98996.45
2023-05-01T11:38:04.792Z,98988.90
2023-05-01T11:43:07.889Z,98982.81
2023-05-01T11:48:17.911Z,98977.45
2023-05-01T11:53:20.365Z,98968.72
2023-05-01T11:58:35.579Z,98964.17
2023-05-01T12:03:41.990Z,98958.45
2023-05-01T12:08:47.124Z,98948.16
2023-05-01T12:13:49.748Z,98947.71
2023-05-01T12:18:53.317Z,98941.09
2023-05-01T12:23:55.096Z,98935.70
2023-05-01T12:28:58.505Z,98930.14
2023-05-01T12:34:01.945Z,98922.09
2023-05-01T12:39:08.776Z,98919.48
2023-05-01T12:44:17.991Z,98902.01
2023-05-01T12:49:20.057Z,98897.23
2023-05-01T12:54:38.848Z,98892.79
2023-05-01T12:59:42.207Z,98883.26
2023-05-01T13:04:44.672Z,98880.52
2023-05-01T13:09:54.105Z,98873.70
2023-05-01T13:14:56.078Z,98869.84
2023-05-01T13:20:04.510Z,98865.23
2023-05-01T13:25:16.714Z,98857.30
2023-05-01T13:30:21.389Z,98852.95
2023-05-01T13:35:24.238Z,98853.56
2023-05-01T13:40:27.067Z,98848.20
2023-05-01T13:45:28.172Z,98835.91
2023-05-01T13:50:29.376Z,98827.46
2023-05-01T13:55:32.010Z,98823.44
2023-05-01T14:00:33.483Z,98824.00
2023-05-01T14:05:36.339Z,98816.98
2023-05-01T14:10:37.854Z,98811.94
2023-05-01T14:15:43.300Z,98810.24
2023-05-01T14:20:46.687Z,98800.08
2023-05-01T14:25:48.471Z,98787.30
2023-05-01T14:30:50.580Z,98783.86
2023-05-01T14:35:52.931Z,98785.48
2023-05-01T14:40:53.972Z,98775.71
2023-05-01T14:45:55.122Z,98769.85
2023-05-01T14:50:58.719Z,98763.45
2023-05-01T14:55:59.776Z,98752.80
2023-05-01T15:01:01.983Z,98747.73
2023-05-01T15:06:03.458Z,98743.38
2023-05-01T15:11:05.067Z,98740.14
2023-05-01T15:16:16.129Z,98737.21
2023-05-01T15:21:17.801Z,98731.15
2023-05-01T15:26:19.102Z,98722.54
2023-05-01T15:31:20.379Z,98723.21
2023-05-01T15:36:21.487Z,98719.08
2023-05-01T15:41:22.490Z,98718.75
2023-05-01T15:46:26.112Z,98712.36
2023-05-01T15:51:27.229Z,98719.65
2023-05-01T15:56:28.555Z,98724.48
2023-05-01T16:01:34.329Z,98720.40
2023-05-01T16:06:36.209Z,98720.76
2023-05-01T16:11:37.623Z,98719.77
2023-05-01T16:16:41.773Z,98716.83
2023-05-01T16:21:42.990Z,98717.34
2023-05-01T16:26:44.358Z,98712.98
2023-05-01T16:31:47.296Z,98707.92
2023-05-01T16:36:48.878Z,98701.35
2023-05-01T16:41:52.595Z,98699.20
2023-05-01T16:46:55.656Z,98698.59
2023-05-01T16:51:57.853Z,98699.98
2023-05-01T16:56:58.939Z,98697.46
2023-05-01T17:02:00.266Z,98698.83
2023-05-01T17:07:01.448Z,98701.34
2023-05-01T17:12:02.995Z,98701.23
2023-05-01T17:17:07.193Z,98697.45
2023-05-01T17:22:10.900Z,98699.45
2023-05-01T17:27:13.085Z,98694.78
2023-05-01T17:32:18.170Z,98695.13
2023-05-01T17:37:31.573Z,98696.47
2023-05-01T17:42:32.999Z,98699.98
2023-05-01T17:47:34.485Z,98700.79
2023-05-01T17:52:35.784Z,98697.51
2023-05-01T17:57:41.233Z,98693.85
2023-05-01T18:02:43.999Z,98696.19
2023-05-01T18:07:45.515Z,98710.52
2023-05-01T18:12:50.015Z,98707.73
2023-05-01T18:17:51.539Z,98706.29
2023-05-01T18:22:53.714Z,98704.13
2023-05-01T18:27:55.727Z,98711.44
2023-05-01T18:32:57.277Z,98712.31
2023-05-01T18:37:58.496Z,98708.98
2023-05-01T18:42:59.698Z,98712.60
2023-05-01T18:48:00.880Z,98715.86
2023-05-01T18:53:02.237Z,98717.60
2023-05-01T18:58:03.223Z,98719.11
2023-05-01T19:03:04.271Z,98715.18
2023-05-01T19:08:06.832Z,98719.68
2023-05-01T19:13:07.976Z,98719.34
2023-05-01T19:18:09.948Z,98717.92
2023-05-01T19:23:11.450Z,98718.50
2023-05-01T19:28:12.824Z,98724.55
2023-05-01T19:33:13.954Z,98724.30
2023-05-01T19:38:15.411Z,98725.60
2023-05-01T19:43:16.561Z,98727.92
2023-05-01T19:48:17.983Z,98726.09
2023-05-01T19:53:20.386Z,98727.71
2023-05-01T19:58:26.048Z,98731.52
2023-05-01T20:03:27.661Z,98731.56
2023-05-01T20:08:29.096Z,98731.93
2023-05-01T20:13:30.312Z,98731.79
2023-05-01T20:18:31.329Z,98734.36
2023-05-01T20:23:33.919Z,98729.57
2023-05-01T20:28:34.935Z,98727.17
2023-05-01T20:33:36.167Z,98725.29
2023-05-01T20:38:46.829Z,98732.80
2023-05-01T20:43:47.904Z,98732.77
2023-05-01T20:48:48.889Z,98734.95
2023-05-01T20:53:49.849Z,98740.73
2023-05-01T20:58:50.861Z,98744.98
2023-05-01T21:03:52.066Z,98746.80
2023-05-01T21:08:55.124Z,98747.46
2023-05-01T21:14:02.335Z,98745.70
2023-05-01T21:19:03.405Z,98750.79
2023-05-01T21:24:06.898Z,98751.08
2023-05-01T21:29:09.068Z,98745.55
2023-05-01T21:34:10.078Z,98754.23
2023-05-01T21:39:15.021Z,98756.73
2023-05-01T21:44:17.066Z,98760.60
2023-05-01T21:49:22.315Z,98761.42
2023-05-01T21:54:23.637Z,98761.23
2023-05-01T21:59:30.267Z,98759.00
2023-05-01T22:04:31.334Z,98755.75
2023-05-01T22:09:32.733Z,98758.30
2023-05-01T22:19:41.443Z,98760.17
2023-05-01T22:24:42.579Z,98757.64
2023-05-01T22:29:43.933Z,98755.92
2023-05-01T22:34:44.997Z,98754.91
2023-05-01T22:39:46.141Z,98757.84
2023-05-01T22:44:47.609Z,98761.92
2023-05-01T22:49:49.027Z,98759.83
2023-05-01T22:54:52.168Z,98756.61
2023-05-01T22:59:53.605Z,98754.05
2023-05-01T23:04:54.753Z,98753.39
2023-05-01T23:09:56.595Z,98754.95
2023-05-01T23:15:00.536Z,98757.46
2023-05-01T23:20:02.110Z,98758.92
2023-05-01T23:25:05.364Z,98760.56
2023-05-01T23:30:07.688Z,98763.10
2023-05-01T23:35:23.136Z,98757.80
2023-05-01T23:40:25.598Z,98752.52
2023-05-01T23:45:29.360Z,98750.28
2023-05-01T23:50:32.667Z,98743.59
